Time;durP1;ratioP1;P1;durP2;ratioP2;P2;SDS_P1;SDS_P2;PMS_P1;PMS_P2;Temp;Humidity;BMP_temperature;BMP_pressure;BME280_temperature;BME280_humidity;BME280_pressure;Samples;Min_cycle;Max_cycle;Signal;HPM_P1;HPM_P2
2022/12/14 00:00:45;;;;;;;23.60;14.60;;;;;;;;;;5014902;28;20487;-49
2022/12/14 00:03:12;;;;;;;22.10;13.40;;;;;;;;;;5014522;28;20436;-48
2022/12/14 00:05:38;;;;;;;21.33;14.13;;;;;;;;;;5015196;28;20812;-48
2022/12/14 00:08:04;;;;;;;19.70;13.17;;;;;;;;;;5014725;28;20486;-48
2022/12/14 00:10:31;;;;;;;21.13;13.67;;;;;;;;;;5014952;28;20436;-49
2022/12/14 00:12:58;;;;;;;21.47;13.63;;;;;;;;;;5014360;28;20846;-47
2022/12/14 00:15:24;;;;;;;19.87;13.07;;;;;;;;;;5014463;28;20448;-48
2022/12/14 00:17:50;;;;;;;21.23;13.77;;;;;;;;;;5014767;28;20436;-47
2022/12/14 00:20:17;;;;;;;22.30;13.20;;;;;;;;;;5014625;28;20836;-47
2022/12/14 00:22:43;;;;;;;22.87;15.20;;;;;;;;;;5014675;28;20914;-47
2022/12/14 00:25:09;;;;;;;24.83;15.00;;;;;;;;;;5014546;28;20807;-48
2022/12/14 00:27:35;;;;;;;24.43;15.20;;;;;;;;;;5014799;28;20483;-47
2022/12/14 00:30:02;;;;;;;25.40;16.03;;;;;;;;;;5014334;28;20440;-48
2022/12/14 00:32:28;;;;;;;25.40;15.37;;;;;;;;;;5014400;28;20440;-48
2022/12/14 00:34:54;;;;;;;24.97;15.83;;;;;;;;;;5014459;28;20518;-48
2022/12/14 00:37:20;;;;;;;23.63;15.53;;;;;;;;;;5014554;28;20498;-48
2022/12/14 00:39:46;;;;;;;22.43;15.33;;;;;;;;;;5013849;28;20893;-48
2022/12/14 00:42:13;;;;;;;25.73;15.73;;;;;;;;;;5014371;28;20851;-48
2022/12/14 00:44:39;;;;;;;25.60;15.40;;;;;;;;;;5013099;28;20433;-48
2022/12/14 00:47:06;;;;;;;24.70;14.97;;;;;;;;;;5014094;28;20437;-49
2022/12/14 00:49:32;;;;;;;24.03;15.57;;;;;;;;;;5014154;28;21001;-48
2022/12/14 00:51:58;;;;;;;27.03;16.47;;;;;;;;;;5013917;28;20527;-48
2022/12/14 00:54:24;;;;;;;23.13;14.63;;;;;;;;;;5014325;28;20535;-48
2022/12/14 00:56:50;;;;;;;29.37;17.17;;;;;;;;;;5014051;28;20504;-48
2022/12/14 00:59:16;;;;;;;24.10;15.43;;;;;;;;;;5013574;28;20884;-49
2022/12/14 01:01:42;;;;;;;23.47;14.90;;;;;;;;;;5013813;28;20440;-48
2022/12/14 01:04:16;;;;;;;25.57;15.50;;;;;;;;;;5011747;28;21010;-48
2022/12/14 01:06:42;;;;;;;25.20;14.63;;;;;;;;;;5012491;28;20829;-48
2022/12/14 01:09:08;;;;;;;24.47;14.20;;;;;;;;;;5014032;28;20436;-47
2022/12/14 01:11:34;;;;;;;22.80;14.50;;;;;;;;;;5013747;28;20433;-49
2022/12/14 01:14:00;;;;;;;21.23;13.77;;;;;;;;;;5013709;28;20436;-48
2022/12/14 01:16:26;;;;;;;23.17;14.93;;;;;;;;;;5013689;28;20472;-48
2022/12/14 01:18:52;;;;;;;21.07;14.23;;;;;;;;;;5013724;28;20455;-47
2022/12/14 01:21:21;;;;;;;21.40;14.40;;;;;;;;;;5013441;28;20432;-48
2022/12/14 01:23:50;;;;;;;22.63;13.63;;;;;;;;;;5013527;28;20444;-48
2022/12/14 01:26:17;;;;;;;21.57;13.33;;;;;;;;;;5013349;28;20481;-48
2022/12/14 01:28:43;;;;;;;22.87;14.30;;;;;;;;;;5013445;28;20532;-47
2022/12/14 01:31:10;;;;;;;21.13;14.33;;;;;;;;;;5013306;28;20440;-48
2022/12/14 01:33:36;;;;;;;22.67;14.17;;;;;;;;;;5013374;28;20511;-47
2022/12/14 01:36:07;;;;;;;21.80;13.93;;;;;;;;;;5013217;28;20943;-47
2022/12/14 01:38:34;;;;;;;20.23;13.70;;;;;;;;;;5013090;28;20481;-47
2022/12/14 01:41:00;;;;;;;21.20;13.63;;;;;;;;;;5013013;28;20503;-47
2022/12/14 01:43:41;;;;;;;21.47;13.23;;;;;;;;;;5013218;28;20437;-47
2022/12/14 01:46:07;;;;;;;22.07;13.67;;;;;;;;;;5013018;28;20483;-47
2022/12/14 01:48:33;;;;;;;21.93;12.70;;;;;;;;;;5013061;28;20503;-47
2022/12/14 01:50:59;;;;;;;20.03;13.30;;;;;;;;;;5012808;28;20437;-47
2022/12/14 01:53:25;;;;;;;22.67;13.90;;;;;;;;;;5013010;28;20491;-47
2022/12/14 01:55:54;;;;;;;19.73;13.23;;;;;;;;;;5012969;28;20449;-48
2022/12/14 01:58:21;;;;;;;21.83;13.83;;;;;;;;;;5013101;28;20452;-48
2022/12/14 02:00:48;;;;;;;19.73;13.23;;;;;;;;;;5012664;28;20931;-48
2022/12/14 02:03:15;;;;;;;17.83;12.43;;;;;;;;;;5012700;28;20942;-48
2022/12/14 02:05:43;;;;;;;21.33;13.23;;;;;;;;;;5012770;28;20444;-48
2022/12/14 02:08:09;;;;;;;17.47;12.70;;;;;;;;;;5012886;28;20448;-48
2022/12/14 02:10:35;;;;;;;19.90;13.40;;;;;;;;;;5012778;28;20487;-48
2022/12/14 02:13:06;;;;;;;21.93;13.67;;;;;;;;;;5011978;28;20503;-48
2022/12/14 02:15:33;;;;;;;23.87;14.63;;;;;;;;;;5012468;28;21026;-48
2022/12/14 02:18:01;;;;;;;22.13;14.53;;;;;;;;;;5012716;28;20467;-48
2022/12/14 02:20:33;;;;;;;21.03;13.50;;;;;;;;;;5012427;28;20488;-48
2022/12/14 02:23:09;;;;;;;21.13;13.37;;;;;;;;;;5012328;28;20520;-48
2022/12/14 02:26:03;;;;;;;20.00;12.80;;;;;;;;;;5012508;28;20440;-48
2022/12/14 02:28:53;;;;;;;18.93;12.70;;;;;;;;;;5012307;28;20437;-47
2022/12/14 02:31:24;;;;;;;18.53;12.33;;;;;;;;;;5012259;28;20453;-48
2022/12/14 02:33:53;;;;;;;23.83;14.00;;;;;;;;;;5012267;28;20473;-48
2022/12/14 02:36:22;;;;;;;20.30;13.50;;;;;;;;;;5012088;28;20506;-48
2022/12/14 02:38:51;;;;;;;23.60;13.73;;;;;;;;;;5011980;28;20472;-48
2022/12/14 02:41:20;;;;;;;21.00;13.13;;;;;;;;;;5011912;28;20699;-48
2022/12/14 02:43:50;;;;;;;19.67;14.13;;;;;;;;;;5012052;28;20440;-48
2022/12/14 02:46:20;;;;;;;21.60;13.73;;;;;;;;;;5011955;28;20487;-48
2022/12/14 02:48:49;;;;;;;21.93;14.13;;;;;;;;;;5011981;28;20491;-48
2022/12/14 02:51:21;;;;;;;23.53;14.73;;;;;;;;;;5011810;28;20510;-48
2022/12/14 02:53:53;;;;;;;22.07;13.77;;;;;;;;;;5011904;28;20445;-48
2022/12/14 02:56:23;;;;;;;21.47;13.90;;;;;;;;;;5011841;28;21022;-48
2022/12/14 02:58:50;;;;;;;22.53;13.50;;;;;;;;;;5011671;28;20429;-48
2022/12/14 03:01:17;;;;;;;26.17;14.40;;;;;;;;;;5011579;28;20472;-48
2022/12/14 03:03:43;;;;;;;21.13;13.80;;;;;;;;;;5011662;28;20803;-48
2022/12/14 03:06:13;;;;;;;23.20;13.20;;;;;;;;;;5011842;28;20792;-48
2022/12/14 03:08:41;;;;;;;20.07;12.63;;;;;;;;;;5011912;28;20445;-48
2022/12/14 03:11:07;;;;;;;20.17;12.97;;;;;;;;;;5011894;28;20432;-48
2022/12/14 03:13:35;;;;;;;19.97;12.87;;;;;;;;;;5011709;28;20939;-48
2022/12/14 03:16:04;;;;;;;20.33;12.97;;;;;;;;;;5011432;28;20863;-48
2022/12/14 03:18:34;;;;;;;19.57;12.43;;;;;;;;;;5011595;28;20433;-48
2022/12/14 03:24:07;;;;;;;21.03;12.80;;;;;;;;;;5010705;28;20403;-47
2022/12/14 03:26:34;;;;;;;19.80;12.63;;;;;;;;;;5011251;28;20499;-48
2022/12/14 03:29:04;;;;;;;15.77;11.90;;;;;;;;;;5011214;28;20989;-48
2022/12/14 03:31:32;;;;;;;18.47;12.60;;;;;;;;;;5011358;28;20531;-47
2022/12/14 03:33:58;;;;;;;18.93;11.80;;;;;;;;;;5011195;28;20471;-48
2022/12/14 03:36:25;;;;;;;19.30;12.10;;;;;;;;;;5011580;28;20448;-48
2022/12/14 03:38:53;;;;;;;18.57;12.50;;;;;;;;;;5011298;28;20476;-48
2022/12/14 03:41:24;;;;;;;18.00;13.00;;;;;;;;;;5011230;28;20476;-48
2022/12/14 03:43:59;;;;;;;20.37;12.00;;;;;;;;;;5011274;28;20455;-47
2022/12/14 03:46:31;;;;;;;16.67;11.10;;;;;;;;;;5011431;28;20448;-47
2022/12/14 03:49:00;;;;;;;32.93;20.30;;;;;;;;;;5010922;28;20931;-47
2022/12/14 03:51:31;;;;;;;44.37;28.33;;;;;;;;;;5011184;28;20452;-47
2022/12/14 03:54:01;;;;;;;42.53;29.10;;;;;;;;;;5011193;28;20949;-47
2022/12/14 03:56:33;;;;;;;31.43;19.30;;;;;;;;;;5011296;28;20531;-47
2022/12/14 03:59:02;;;;;;;24.87;16.10;;;;;;;;;;5011029;28;20863;-47
2022/12/14 04:01:33;;;;;;;21.70;14.10;;;;;;;;;;5011069;28;20491;-47
2022/12/14 04:04:03;;;;;;;17.43;12.23;;;;;;;;;;5011021;28;20440;-47
2022/12/14 04:06:33;;;;;;;17.07;11.53;;;;;;;;;;5011144;28;20433;-47
2022/12/14 04:09:04;;;;;;;20.00;12.80;;;;;;;;;;5010949;28;20475;-48
2022/12/14 04:19:56;;;;;;;19.50;12.80;;;;;;;;;;5011043;28;20522;-48
2022/12/14 04:22:23;;;;;;;20.30;11.97;;;;;;;;;;5011182;28;20568;-47
2022/12/14 04:27:40;;;;;;;19.53;12.13;;;;;;;;;;5010980;28;20416;-48
2022/12/14 04:30:07;;;;;;;16.77;11.47;;;;;;;;;;5010833;28;20439;-48
2022/12/14 04:32:35;;;;;;;19.20;12.00;;;;;;;;;;5010894;28;20476;-47
2022/12/14 04:35:05;;;;;;;17.33;12.30;;;;;;;;;;5010663;28;20460;-48
2022/12/14 04:37:33;;;;;;;17.97;12.50;;;;;;;;;;5014399;28;20444;-48
2022/12/14 04:40:04;;;;;;;20.37;12.30;;;;;;;;;;5014084;28;20492;-48
2022/12/14 04:42:33;;;;;;;16.83;11.03;;;;;;;;;;5014275;28;20930;-47
2022/12/14 04:45:03;;;;;;;19.53;11.97;;;;;;;;;;5014115;28;20932;-48
2022/12/14 04:47:34;;;;;;;17.63;11.07;;;;;;;;;;5014204;28;20428;-48
2022/12/14 04:50:01;;;;;;;16.80;11.53;;;;;;;;;;5014131;28;20449;-48
2022/12/14 04:52:30;;;;;;;16.63;11.07;;;;;;;;;;5014180;28;20449;-48
2022/12/14 04:54:59;;;;;;;15.07;10.57;;;;;;;;;;5014261;28;20931;-47
2022/12/14 04:57:30;;;;;;;18.60;11.60;;;;;;;;;;5014306;28;20452;-48
2022/12/14 04:59:58;;;;;;;17.27;11.30;;;;;;;;;;5013913;28;20515;-48
2022/12/14 05:02:32;;;;;;;15.70;10.50;;;;;;;;;;5014238;28;20466;-48
2022/12/14 05:05:05;;;;;;;15.73;10.77;;;;;;;;;;5013882;28;20448;-48
2022/12/14 05:07:36;;;;;;;17.60;12.27;;;;;;;;;;5013943;28;20701;-47
2022/12/14 05:10:06;;;;;;;14.83;10.87;;;;;;;;;;5013812;28;20862;-48
2022/12/14 05:12:36;;;;;;;17.23;11.50;;;;;;;;;;5013759;28;21126;-47
2022/12/14 05:15:04;;;;;;;15.30;10.83;;;;;;;;;;5013864;28;20725;-48
2022/12/14 05:17:33;;;;;;;15.27;11.03;;;;;;;;;;5013731;28;20448;-48
2022/12/14 05:19:59;;;;;;;18.47;11.03;;;;;;;;;;5013409;28;20464;-48
2022/12/14 05:22:25;;;;;;;15.47;10.90;;;;;;;;;;5013560;28;20797;-48
2022/12/14 05:24:51;;;;;;;16.27;10.03;;;;;;;;;;5013629;28;20445;-47
2022/12/14 05:27:17;;;;;;;15.43;11.00;;;;;;;;;;5013423;28;20440;-48
2022/12/14 05:29:43;;;;;;;15.20;10.80;;;;;;;;;;5013448;28;20432;-48
2022/12/14 05:32:11;;;;;;;16.23;10.43;;;;;;;;;;5013447;28;20843;-47
2022/12/14 05:34:38;;;;;;;19.07;12.03;;;;;;;;;;5013533;28;20461;-48
2022/12/14 05:37:05;;;;;;;17.13;11.47;;;;;;;;;;5013216;28;21004;-46
2022/12/14 05:39:31;;;;;;;18.70;12.17;;;;;;;;;;5013217;28;20473;-46
2022/12/14 05:41:57;;;;;;;16.17;11.10;;;;;;;;;;5013394;28;20445;-46
2022/12/14 05:44:23;;;;;;;15.73;11.07;;;;;;;;;;5013214;28;20870;-46
2022/12/14 05:46:49;;;;;;;15.60;10.20;;;;;;;;;;5012842;28;20783;-46
2022/12/14 05:49:15;;;;;;;15.27;10.87;;;;;;;;;;5012298;28;20452;-46
2022/12/14 05:51:42;;;;;;;15.73;10.53;;;;;;;;;;5013117;28;20551;-47
2022/12/14 05:54:08;;;;;;;15.67;11.43;;;;;;;;;;5013086;28;20867;-46
2022/12/14 05:56:34;;;;;;;20.10;13.20;;;;;;;;;;5012990;28;20441;-48
2022/12/14 05:59:01;;;;;;;20.83;13.80;;;;;;;;;;5012710;28;20442;-47
2022/12/14 06:01:27;;;;;;;18.43;12.60;;;;;;;;;;5012873;28;20563;-46
2022/12/14 06:03:53;;;;;;;23.47;12.80;;;;;;;;;;5012989;28;20445;-46
2022/12/14 06:06:20;;;;;;;21.20;12.33;;;;;;;;;;5012657;28;20437;-46
2022/12/14 06:08:47;;;;;;;17.20;11.07;;;;;;;;;;5012620;28;21019;-46
2022/12/14 06:11:14;;;;;;;15.70;11.37;;;;;;;;;;5012389;28;20436;-46
2022/12/14 06:13:41;;;;;;;16.83;11.40;;;;;;;;;;5012588;28;20508;-46
2022/12/14 06:16:11;;;;;;;15.97;10.60;;;;;;;;;;5012463;28;20425;-46
2022/12/14 06:18:40;;;;;;;16.73;10.77;;;;;;;;;;5012402;28;20440;-46
2022/12/14 06:21:06;;;;;;;15.63;10.60;;;;;;;;;;5012315;28;20527;-47
2022/12/14 06:23:32;;;;;;;20.63;11.03;;;;;;;;;;5012277;28;20441;-46
2022/12/14 06:25:59;;;;;;;15.67;10.70;;;;;;;;;;5012291;28;20520;-46
2022/12/14 06:28:25;;;;;;;20.07;11.73;;;;;;;;;;5012371;28;20455;-46
2022/12/14 06:30:51;;;;;;;15.67;11.30;;;;;;;;;;5012228;28;20850;-46
2022/12/14 06:33:18;;;;;;;16.57;11.00;;;;;;;;;;5011891;28;20433;-46
2022/12/14 06:35:44;;;;;;;16.37;11.63;;;;;;;;;;5012103;28;20502;-46
2022/12/14 06:38:10;;;;;;;16.70;10.77;;;;;;;;;;5011908;28;20447;-46
2022/12/14 06:40:36;;;;;;;16.40;11.40;;;;;;;;;;5012310;28;20523;-46
2022/12/14 06:43:03;;;;;;;16.87;10.77;;;;;;;;;;5011946;28;20688;-46
2022/12/14 06:45:29;;;;;;;16.97;10.80;;;;;;;;;;5012012;28;20448;-46
2022/12/14 06:47:57;;;;;;;18.43;10.30;;;;;;;;;;5012127;28;20436;-46
2022/12/14 06:50:23;;;;;;;16.17;10.50;;;;;;;;;;5012105;28;20429;-46
2022/12/14 06:52:49;;;;;;;13.90;9.83;;;;;;;;;;5011690;28;20440;-46
2022/12/14 06:55:16;;;;;;;15.43;10.67;;;;;;;;;;5011730;28;20539;-47
2022/12/14 06:57:42;;;;;;;15.63;10.30;;;;;;;;;;5011865;28;20448;-47
2022/12/14 07:00:11;;;;;;;15.87;11.23;;;;;;;;;;5011544;28;20527;-47
2022/12/14 07:02:37;;;;;;;14.63;9.80;;;;;;;;;;5012042;28;20444;-46
2022/12/14 07:05:03;;;;;;;16.27;11.30;;;;;;;;;;5011593;28;20442;-46
2022/12/14 07:07:31;;;;;;;16.67;10.70;;;;;;;;;;5011763;28;20471;-47
2022/12/14 07:09:57;;;;;;;15.67;10.67;;;;;;;;;;5011665;28;20440;-46
2022/12/14 07:12:23;;;;;;;14.70;10.43;;;;;;;;;;5011784;28;20424;-46
2022/12/14 07:14:49;;;;;;;16.73;10.07;;;;;;;;;;5011815;28;20798;-46
2022/12/14 07:17:16;;;;;;;16.63;9.87;;;;;;;;;;5011448;28;20451;-47
2022/12/14 07:19:42;;;;;;;16.63;10.80;;;;;;;;;;5011499;28;20567;-47
2022/12/14 07:22:08;;;;;;;19.13;11.87;;;;;;;;;;5011458;28;21004;-47
2022/12/14 07:24:34;;;;;;;21.07;11.87;;;;;;;;;;5011516;28;20433;-47
2022/12/14 07:27:00;;;;;;;23.70;12.70;;;;;;;;;;5011363;28;20432;-47
2022/12/14 07:29:26;;;;;;;20.27;12.10;;;;;;;;;;5011408;28;20439;-47
2022/12/14 07:31:52;;;;;;;19.07;12.17;;;;;;;;;;5011573;28;20436;-47
2022/12/14 07:34:20;;;;;;;19.13;11.87;;;;;;;;;;5011176;28;20518;-47
2022/12/14 07:36:48;;;;;;;17.17;11.73;;;;;;;;;;5011344;28;21056;-47
2022/12/14 07:39:14;;;;;;;18.60;11.17;;;;;;;;;;5011249;28;20487;-47
2022/12/14 07:41:41;;;;;;;18.63;12.07;;;;;;;;;;5011428;28;20476;-47
2022/12/14 07:44:07;;;;;;;22.53;12.03;;;;;;;;;;5011355;28;20520;-47
2022/12/14 07:46:33;;;;;;;17.00;11.27;;;;;;;;;;5011305;28;20464;-47
2022/12/14 07:49:00;;;;;;;22.87;11.87;;;;;;;;;;5011257;28;20452;-46
2022/12/14 07:51:28;;;;;;;17.50;11.50;;;;;;;;;;5011238;28;20448;-47
2022/12/14 07:53:55;;;;;;;17.30;11.20;;;;;;;;;;5011480;28;20473;-46
2022/12/14 07:56:23;;;;;;;15.03;11.03;;;;;;;;;;5011229;28;20838;-47
2022/12/14 07:58:49;;;;;;;15.10;10.17;;;;;;;;;;5011103;28;20428;-47
2022/12/14 08:01:17;;;;;;;17.30;11.10;;;;;;;;;;5010973;28;20485;-47
2022/12/14 08:03:44;;;;;;;15.17;10.60;;;;;;;;;;5011101;28;20448;-47
2022/12/14 08:06:11;;;;;;;17.60;10.93;;;;;;;;;;5011117;28;20444;-47
2022/12/14 08:08:39;;;;;;;14.40;10.70;;;;;;;;;;5011193;28;20440;-46
2022/12/14 08:11:05;;;;;;;17.90;11.07;;;;;;;;;;5012316;28;20543;-47
2022/12/14 08:13:32;;;;;;;18.50;12.37;;;;;;;;;;5014790;28;20443;-47
2022/12/14 08:16:01;;;;;;;16.90;10.80;;;;;;;;;;5014878;28;20436;-47
2022/12/14 08:18:27;;;;;;;21.77;12.23;;;;;;;;;;5014744;28;20436;-50
2022/12/14 08:20:53;;;;;;;16.87;11.33;;;;;;;;;;5014813;28;20982;-47
2022/12/14 08:23:20;;;;;;;17.33;11.83;;;;;;;;;;5014790;28;20502;-47
2022/12/14 08:25:51;;;;;;;17.37;10.77;;;;;;;;;;5014819;28;20776;-47
2022/12/14 08:28:17;;;;;;;21.27;13.03;;;;;;;;;;5014788;28;20693;-47
2022/12/14 08:30:43;;;;;;;22.87;13.47;;;;;;;;;;5014653;28;20464;-47
2022/12/14 08:33:09;;;;;;;21.30;13.97;;;;;;;;;;5014525;28;20436;-47
2022/12/14 08:35:35;;;;;;;20.93;13.33;;;;;;;;;;5014497;28;20974;-46
2022/12/14 08:38:01;;;;;;;20.73;12.13;;;;;;;;;;5014105;28;20437;-46
2022/12/14 08:40:28;;;;;;;16.97;11.67;;;;;;;;;;5014220;28;20486;-47
2022/12/14 08:42:55;;;;;;;17.43;11.37;;;;;;;;;;5014499;28;20444;-47
2022/12/14 08:45:21;;;;;;;16.93;10.93;;;;;;;;;;5014518;28;20448;-47
2022/12/14 08:47:48;;;;;;;16.37;10.70;;;;;;;;;;5014194;28;20432;-47
2022/12/14 08:50:14;;;;;;;14.10;9.70;;;;;;;;;;5014108;28;20440;-47
2022/12/14 08:52:40;;;;;;;14.60;10.23;;;;;;;;;;5014203;28;20444;-47
2022/12/14 08:55:07;;;;;;;14.17;10.23;;;;;;;;;;5014233;28;20480;-46
2022/12/14 08:57:33;;;;;;;14.63;10.00;;;;;;;;;;5014058;28;20433;-47
2022/12/14 09:00:00;;;;;;;13.97;9.53;;;;;;;;;;5014069;28;20468;-47
2022/12/14 09:02:26;;;;;;;15.60;10.37;;;;;;;;;;5014113;28;20472;-45
2022/12/14 09:04:53;;;;;;;13.87;9.93;;;;;;;;;;5014164;28;20452;-47
2022/12/14 09:07:19;;;;;;;13.00;10.17;;;;;;;;;;5013794;28;20436;-47
2022/12/14 09:09:45;;;;;;;15.37;10.23;;;;;;;;;;5013821;28;20611;-47
2022/12/14 09:12:11;;;;;;;15.90;11.77;;;;;;;;;;5012473;28;20432;-47
2022/12/14 09:14:37;;;;;;;18.93;12.30;;;;;;;;;;5013867;28;20444;-47
2022/12/14 09:17:05;;;;;;;21.00;12.77;;;;;;;;;;5013851;28;20942;-47
2022/12/14 09:19:31;;;;;;;22.93;12.67;;;;;;;;;;5013499;28;20894;-48
2022/12/14 09:21:57;;;;;;;16.93;11.67;;;;;;;;;;5013340;28;20567;-47
2022/12/14 09:24:23;;;;;;;15.93;11.80;;;;;;;;;;5013754;28;20480;-48
2022/12/14 09:26:50;;;;;;;20.23;12.43;;;;;;;;;;5013554;28;20453;-47
2022/12/14 09:29:17;;;;;;;16.93;11.73;;;;;;;;;;5013323;28;20799;-46
2022/12/14 09:31:43;;;;;;;18.27;11.77;;;;;;;;;;5013325;28;20452;-49
2022/12/14 09:34:10;;;;;;;15.53;10.90;;;;;;;;;;5013388;28;20468;-47
2022/12/14 09:36:37;;;;;;;13.97;11.30;;;;;;;;;;5013425;28;20449;-47
2022/12/14 09:39:03;;;;;;;14.77;11.40;;;;;;;;;;5013155;28;20241;-47
2022/12/14 09:41:33;;;;;;;14.17;11.30;;;;;;;;;;5013034;28;20218;-47
2022/12/14 09:44:02;;;;;;;15.33;10.40;;;;;;;;;;5013051;28;20275;-47
2022/12/14 09:46:32;;;;;;;13.57;10.73;;;;;;;;;;5012991;28;20212;-47
2022/12/14 09:49:00;;;;;;;16.40;11.07;;;;;;;;;;5013094;28;20194;-47
2022/12/14 09:51:30;;;;;;;21.43;13.57;;;;;;;;;;5013043;28;20228;-49
2022/12/14 09:54:00;;;;;;;15.20;12.07;;;;;;;;;;5013193;28;20209;-48
2022/12/14 09:56:26;;;;;;;13.53;11.93;;;;;;;;;;5013097;28;20256;-47
2022/12/14 09:58:54;;;;;;;15.20;11.67;;;;;;;;;;5012989;28;20252;-47
2022/12/14 10:01:37;;;;;;;17.23;12.20;;;;;;;;;;5012751;28;20232;-47
2022/12/14 10:04:05;;;;;;;17.00;12.60;;;;;;;;;;5012854;28;20200;-48
2022/12/14 10:06:36;;;;;;;14.50;12.57;;;;;;;;;;5012712;28;20675;-46
2022/12/14 10:09:05;;;;;;;17.43;12.43;;;;;;;;;;5012743;28;20640;-49
2022/12/14 10:11:33;;;;;;;13.73;11.13;;;;;;;;;;5012776;28;20224;-47
2022/12/14 10:14:03;;;;;;;13.27;11.00;;;;;;;;;;5012511;28;20213;-47
2022/12/14 10:16:34;;;;;;;14.13;10.73;;;;;;;;;;5012815;28;20198;-48
2022/12/14 10:19:07;;;;;;;15.83;11.60;;;;;;;;;;5012900;28;20229;-47
2022/12/14 10:21:41;;;;;;;15.00;10.80;;;;;;;;;;5012858;28;20221;-48
2022/12/14 10:24:11;;;;;;;13.70;10.60;;;;;;;;;;5012936;28;20200;-47
2022/12/14 10:26:42;;;;;;;13.50;11.13;;;;;;;;;;5013015;28;20240;-47
2022/12/14 10:29:13;;;;;;;13.43;11.10;;;;;;;;;;5010818;28;20201;-47
2022/12/14 10:31:43;;;;;;;15.53;10.90;;;;;;;;;;5012595;28;20233;-47
2022/12/14 10:34:14;;;;;;;13.63;11.13;;;;;;;;;;5011640;28;20229;-47
2022/12/14 10:36:49;;;;;;;11.83;10.60;;;;;;;;;;5012206;28;20197;-47
2022/12/14 10:39:20;;;;;;;16.80;10.60;;;;;;;;;;5011817;28;20241;-47
2022/12/14 10:41:52;;;;;;;14.20;10.70;;;;;;;;;;5011905;28;20229;-47
2022/12/14 10:44:22;;;;;;;13.03;10.50;;;;;;;;;;5011858;28;20296;-48
2022/12/14 10:46:54;;;;;;;15.60;10.50;;;;;;;;;;5012022;28;20577;-47
2022/12/14 10:49:22;;;;;;;12.50;9.63;;;;;;;;;;5011809;28;20204;-48
2022/12/14 10:51:52;;;;;;;13.17;9.67;;;;;;;;;;5011852;28;20259;-48
2022/12/14 10:54:23;;;;;;;12.13;9.37;;;;;;;;;;5011621;28;20296;-48
2022/12/14 10:56:50;;;;;;;18.93;10.13;;;;;;;;;;5011683;28;20607;-48
2022/12/14 10:59:21;;;;;;;13.03;9.40;;;;;;;;;;5011411;28;20627;-48
2022/12/14 11:01:48;;;;;;;12.87;10.37;;;;;;;;;;5011653;28;20271;-48
2022/12/14 11:04:20;;;;;;;11.73;10.23;;;;;;;;;;5011607;28;20228;-48
2022/12/14 11:06:46;;;;;;;15.13;10.30;;;;;;;;;;5011736;28;20199;-48
2022/12/14 11:09:20;;;;;;;14.87;10.83;;;;;;;;;;5011501;28;20197;-48
2022/12/14 11:11:46;;;;;;;13.23;10.23;;;;;;;;;;5011582;28;20259;-48
2022/12/14 11:14:15;;;;;;;12.80;10.93;;;;;;;;;;5011417;28;20216;-47
2022/12/14 11:16:41;;;;;;;13.67;10.63;;;;;;;;;;5011811;28;20297;-47
2022/12/14 11:19:21;;;;;;;13.50;10.93;;;;;;;;;;5011684;28;20233;-49
2022/12/14 11:21:48;;;;;;;16.30;11.50;;;;;;;;;;5011573;28;20222;-48
2022/12/14 11:24:22;;;;;;;13.17;10.70;;;;;;;;;;5011685;28;20221;-48
2022/12/14 11:26:48;;;;;;;14.83;11.60;;;;;;;;;;5011665;28;20568;-47
2022/12/14 11:29:16;;;;;;;13.33;11.33;;;;;;;;;;5011554;28;20252;-46
2022/12/14 11:31:44;;;;;;;10.60;9.33;;;;;;;;;;5011680;28;20277;-47
2022/12/14 11:34:19;;;;;;;10.70;9.60;;;;;;;;;;5011474;28;20611;-48
2022/12/14 11:36:45;;;;;;;12.27;10.60;;;;;;;;;;5009612;28;20199;-47
2022/12/14 11:39:19;;;;;;;11.13;9.60;;;;;;;;;;5011165;28;20298;-48
2022/12/14 11:41:47;;;;;;;10.93;9.80;;;;;;;;;;5011644;28;20225;-47
2022/12/14 11:44:21;;;;;;;10.67;9.37;;;;;;;;;;5011347;28;20660;-49
2022/12/14 11:46:50;;;;;;;12.40;10.80;;;;;;;;;;5012239;28;20197;-47
2022/12/14 11:49:34;;;;;;;12.47;9.63;;;;;;;;;;5015376;28;20206;-47
2022/12/14 11:52:01;;;;;;;10.60;9.43;;;;;;;;;;5015425;28;20200;-47
2022/12/14 11:54:28;;;;;;;11.40;9.67;;;;;;;;;;5015276;28;20284;-48
2022/12/14 11:56:59;;;;;;;12.93;10.27;;;;;;;;;;5015620;28;20648;-47
2022/12/14 11:59:27;;;;;;;11.63;10.03;;;;;;;;;;5015672;28;20617;-46
2022/12/14 12:01:55;;;;;;;11.37;10.17;;;;;;;;;;5015624;28;20233;-48
2022/12/14 12:04:22;;;;;;;12.67;10.00;;;;;;;;;;5015333;28;20229;-48
2022/12/14 12:06:49;;;;;;;12.17;9.77;;;;;;;;;;5015168;28;20288;-47
2022/12/14 12:09:23;;;;;;;11.57;10.03;;;;;;;;;;5015056;28;20912;-47
2022/12/14 12:11:49;;;;;;;12.10;10.80;;;;;;;;;;5015389;28;20213;-47
2022/12/14 12:14:22;;;;;;;12.50;9.43;;;;;;;;;;5015112;28;20288;-48
2022/12/14 12:16:48;;;;;;;12.43;9.70;;;;;;;;;;5015219;28;20194;-47
2022/12/14 12:19:18;;;;;;;11.53;10.30;;;;;;;;;;5014809;28;20209;-48
2022/12/14 12:21:44;;;;;;;13.20;10.17;;;;;;;;;;5014709;28;20236;-48
2022/12/14 12:24:15;;;;;;;11.77;9.53;;;;;;;;;;5013304;28;20287;-48
2022/12/14 12:26:43;;;;;;;14.50;10.10;;;;;;;;;;5014709;28;20204;-46
2022/12/14 12:29:13;;;;;;;14.70;11.30;;;;;;;;;;5014972;28;20208;-47
2022/12/14 12:31:43;;;;;;;13.53;11.23;;;;;;;;;;5014892;28;20664;-48
2022/12/14 12:34:11;;;;;;;14.60;10.57;;;;;;;;;;5014752;28;20221;-48
2022/12/14 12:36:37;;;;;;;12.97;9.97;;;;;;;;;;5014726;28;20198;-47
2022/12/14 12:39:05;;;;;;;13.37;11.10;;;;;;;;;;5014275;28;20303;-48
2022/12/14 12:41:46;;;;;;;12.10;10.40;;;;;;;;;;5014217;28;20720;-48
2022/12/14 12:44:19;;;;;;;15.37;11.00;;;;;;;;;;5014239;28;20260;-48
2022/12/14 12:46:50;;;;;;;13.13;11.67;;;;;;;;;;5014442;28;20718;-47
2022/12/14 12:49:16;;;;;;;16.90;12.13;;;;;;;;;;5014375;28;20876;-47
2022/12/14 12:51:44;;;;;;;20.30;10.63;;;;;;;;;;5014374;28;20248;-46
2022/12/14 12:54:14;;;;;;;16.50;11.13;;;;;;;;;;5014218;28;20232;-47
2022/12/14 12:56:43;;;;;;;14.63;11.00;;;;;;;;;;5014246;28;20206;-47
2022/12/14 12:59:13;;;;;;;14.20;10.93;;;;;;;;;;5014405;28;20228;-48
2022/12/14 13:01:43;;;;;;;14.73;11.10;;;;;;;;;;5014453;28;20229;-48
2022/12/14 13:04:13;;;;;;;13.03;10.10;;;;;;;;;;5014458;28;20209;-48
2022/12/14 13:06:41;;;;;;;14.17;10.07;;;;;;;;;;5014500;28;20206;-47
2022/12/14 13:09:11;;;;;;;13.80;10.37;;;;;;;;;;5014261;28;20248;-48
2022/12/14 13:11:39;;;;;;;11.33;10.13;;;;;;;;;;5014389;28;20190;-47
2022/12/14 13:14:07;;;;;;;12.23;10.23;;;;;;;;;;5014128;28;20205;-48
2022/12/14 13:16:35;;;;;;;11.93;9.97;;;;;;;;;;5014105;28;20220;-48
2022/12/14 13:19:05;;;;;;;13.60;11.20;;;;;;;;;;5013998;28;20189;-48
2022/12/14 13:21:34;;;;;;;12.50;10.30;;;;;;;;;;5013884;28;20222;-49
2022/12/14 13:24:00;;;;;;;11.10;9.57;;;;;;;;;;5014069;28;20285;-47
2022/12/14 13:26:37;;;;;;;12.37;9.67;;;;;;;;;;5013934;28;20204;-47
2022/12/14 13:29:07;;;;;;;15.30;10.70;;;;;;;;;;5013624;28;20252;-48
2022/12/14 13:31:36;;;;;;;13.27;10.40;;;;;;;;;;5013875;28;20201;-48
2022/12/14 13:34:14;;;;;;;15.53;11.67;;;;;;;;;;5013663;28;20218;-48
2022/12/14 13:36:46;;;;;;;13.80;10.00;;;;;;;;;;5013975;28;20200;-48
2022/12/14 13:39:20;;;;;;;16.97;12.90;;;;;;;;;;5013594;28;20303;-48
2022/12/14 13:41:49;;;;;;;11.20;8.87;;;;;;;;;;5013458;28;20700;-48
2022/12/14 13:44:34;;;;;;;10.47;8.77;;;;;;;;;;5013365;28;20972;-48
2022/12/14 13:47:01;;;;;;;11.73;9.33;;;;;;;;;;5013413;28;20448;-49
2022/12/14 13:49:27;;;;;;;10.97;9.23;;;;;;;;;;5013261;28;20437;-48
2022/12/14 13:51:56;;;;;;;13.60;9.87;;;;;;;;;;5013550;28;20436;-48
2022/12/14 13:54:26;;;;;;;11.80;9.43;;;;;;;;;;5013242;28;20452;-48
2022/12/14 13:57:01;;;;;;;13.60;9.60;;;;;;;;;;5013364;28;21088;-49
2022/12/14 13:59:28;;;;;;;15.20;11.53;;;;;;;;;;5013292;28;20849;-47
2022/12/14 14:01:56;;;;;;;14.13;10.73;;;;;;;;;;5013337;28;20477;-47
2022/12/14 14:04:23;;;;;;;18.67;12.07;;;;;;;;;;5013071;28;20467;-47
2022/12/14 14:06:50;;;;;;;18.70;13.00;;;;;;;;;;5013229;28;20830;-48
2022/12/14 14:09:35;;;;;;;25.17;16.77;;;;;;;;;;5012082;28;20457;-48
2022/12/14 14:12:03;;;;;;;17.47;11.17;;;;;;;;;;5012930;28;20674;-48
2022/12/14 14:14:35;;;;;;;13.57;11.07;;;;;;;;;;5012847;28;20958;-47
2022/12/14 14:17:02;;;;;;;15.27;11.57;;;;;;;;;;5012923;28;20480;-48
2022/12/14 14:19:34;;;;;;;13.33;10.07;;;;;;;;;;5012541;28;20567;-48
2022/12/14 14:22:02;;;;;;;11.60;9.77;;;;;;;;;;5010534;28;20475;-48
2022/12/14 14:24:29;;;;;;;13.53;10.90;;;;;;;;;;5012160;28;20484;-47
2022/12/14 14:26:59;;;;;;;13.93;10.90;;;;;;;;;;5012352;28;20437;-48
2022/12/14 14:29:27;;;;;;;16.30;11.50;;;;;;;;;;5012286;28;20527;-47
2022/12/14 14:31:55;;;;;;;13.67;11.17;;;;;;;;;;5012209;28;20445;-48
2022/12/14 14:34:23;;;;;;;16.47;12.63;;;;;;;;;;5012285;28;20457;-49
2022/12/14 14:36:49;;;;;;;13.27;11.63;;;;;;;;;;5012270;28;20445;-49
2022/12/14 14:39:40;;;;;;;15.03;12.43;;;;;;;;;;5009829;28;20472;-48